createdAt,value
2022-10-18T00:00:46.583Z,16.93
2022-10-18T00:05:51.187Z,16.86
2022-10-18T00:10:54.679Z,16.82
2022-10-18T00:15:59.705Z,16.76
2022-10-18T00:21:06.380Z,16.69
2022-10-18T00:26:11.962Z,16.63
2022-10-18T00:31:17.607Z,16.64
2022-10-18T00:36:22.045Z,16.59
2022-10-18T00:41:28.149Z,16.61
2022-10-18T00:46:32.906Z,16.62
2022-10-18T00:51:44.217Z,16.63
2022-10-18T00:56:47.416Z,16.63
2022-10-18T01:01:50.216Z,16.60
2022-10-18T01:07:00.648Z,16.61
2022-10-18T01:12:17.411Z,16.59
2022-10-18T01:17:26.517Z,16.56
2022-10-18T01:22:38.447Z,16.56
2022-10-18T01:27:54.251Z,16.54
2022-10-18T01:33:04.411Z,16.46
2022-10-18T01:38:12.530Z,16.41
2022-10-18T01:43:17.754Z,16.37
2022-10-18T01:48:21.968Z,16.34
2022-10-18T01:53:28.131Z,16.28
2022-10-18T01:58:37.887Z,16.22
2022-10-18T02:03:46.994Z,16.14
2022-10-18T02:08:55.160Z,16.08
2022-10-18T02:14:01.319Z,16.05
2022-10-18T02:19:11.373Z,16.06
2022-10-18T02:24:16.223Z,16.03
2022-10-18T02:29:19.200Z,15.94
2022-10-18T02:34:24.930Z,15.84
2022-10-18T02:39:31.810Z,15.77
2022-10-18T02:44:34.612Z,15.69
2022-10-18T02:49:38.718Z,15.67
2022-10-18T02:54:41.521Z,15.59
2022-10-18T02:59:44.302Z,15.55
2022-10-18T03:04:48.364Z,15.54
2022-10-18T03:09:51.054Z,15.50
2022-10-18T03:14:53.751Z,15.45
2022-10-18T03:19:57.819Z,15.42
2022-10-18T03:25:00.719Z,15.40
2022-10-18T03:30:03.497Z,15.35
2022-10-18T03:35:09.162Z,15.30
2022-10-18T03:40:12.544Z,15.25
2022-10-18T03:45:15.305Z,15.22
2022-10-18T03:50:19.677Z,15.15
2022-10-18T03:55:22.486Z,15.10
2022-10-18T04:00:25.231Z,15.02
2022-10-18T04:05:31.022Z,14.98
2022-10-18T04:10:33.793Z,14.90
2022-10-18T04:15:36.669Z,14.86
2022-10-18T04:20:40.756Z,14.83
2022-10-18T04:30:52.016Z,14.62
2022-10-18T04:35:56.117Z,14.56
2022-10-18T04:40:58.838Z,14.50
2022-10-18T04:46:01.565Z,14.43
2022-10-18T04:51:05.767Z,14.40
2022-10-18T04:56:09.756Z,14.36
2022-10-18T05:01:12.849Z,14.30
2022-10-18T05:06:17.022Z,14.26
2022-10-18T05:11:19.767Z,14.19
2022-10-18T05:16:22.633Z,14.10
2022-10-18T05:21:26.742Z,14.06
2022-10-18T05:26:29.449Z,14.04
2022-10-18T05:31:32.261Z,13.98
2022-10-18T05:36:36.371Z,13.95
2022-10-18T05:41:39.100Z,13.92
2022-10-18T05:46:41.879Z,13.90
2022-10-18T05:51:45.990Z,13.84
2022-10-18T05:56:48.723Z,13.75
2022-10-18T06:01:51.427Z,13.72
2022-10-18T06:06:56.176Z,13.71
2022-10-18T06:11:58.913Z,13.65
2022-10-18T06:17:01.675Z,13.58
2022-10-18T06:22:05.767Z,13.57
2022-10-18T06:27:09.559Z,13.55
2022-10-18T06:32:12.563Z,13.58
2022-10-18T06:37:16.674Z,13.63
2022-10-18T06:42:21.899Z,13.71
2022-10-18T06:47:25.598Z,13.78
2022-10-18T06:52:29.947Z,13.81
2022-10-18T06:57:32.864Z,13.83
2022-10-18T07:02:35.616Z,13.85
2022-10-18T07:07:39.970Z,13.88
2022-10-18T07:12:42.679Z,13.90
2022-10-18T07:17:46.391Z,13.92
2022-10-18T07:22:50.538Z,13.94
2022-10-18T07:27:53.279Z,13.99
2022-10-18T07:32:55.993Z,14.04
2022-10-18T07:38:00.099Z,14.10
2022-10-18T07:43:04.668Z,14.15
2022-10-18T07:48:07.900Z,14.19
2022-10-18T07:53:11.958Z,14.23
2022-10-18T07:58:14.665Z,14.31
2022-10-18T08:03:17.429Z,14.36
2022-10-18T08:08:21.803Z,14.37
2022-10-18T08:13:24.513Z,14.44
2022-10-18T08:18:27.229Z,14.46
2022-10-18T08:23:31.697Z,14.53
2022-10-18T08:28:36.677Z,14.58
2022-10-18T08:33:40.404Z,14.63
2022-10-18T08:38:44.902Z,14.70
2022-10-18T08:43:56.887Z,14.76
2022-10-18T08:49:01.058Z,14.80
2022-10-18T08:54:11.649Z,14.82
2022-10-18T08:59:14.762Z,14.87
2022-10-18T09:04:32.763Z,14.92
2022-10-18T09:09:43.127Z,14.95
2022-10-18T09:15:04.202Z,15.05
2022-10-18T09:20:22.919Z,15.13
2022-10-18T09:25:34.371Z,15.19
2022-10-18T09:30:44.704Z,15.24
2022-10-18T09:35:52.253Z,15.29
2022-10-18T09:41:00.444Z,15.35
2022-10-18T09:46:05.032Z,15.41
2022-10-18T09:51:13.499Z,15.45
2022-10-18T09:56:23.332Z,15.52
2022-10-18T10:01:28.117Z,15.58
2022-10-18T10:06:34.545Z,15.64
2022-10-18T10:11:40.533Z,15.67
2022-10-18T10:16:50.842Z,15.69
2022-10-18T10:21:58.192Z,15.71
2022-10-18T10:27:05.591Z,15.71
2022-10-18T10:32:14.480Z,15.77
2022-10-18T10:37:27.189Z,15.80
2022-10-18T10:42:33.569Z,15.78
2022-10-18T10:47:38.077Z,15.85
2022-10-18T10:52:43.563Z,15.92
2022-10-18T10:57:50.660Z,15.96
2022-10-18T11:03:27.414Z,15.98
2022-10-18T11:08:36.951Z,15.97
2022-10-18T11:13:57.011Z,15.96
2022-10-18T11:19:37.023Z,15.92
2022-10-18T11:24:39.870Z,15.91
2022-10-18T11:30:16.507Z,15.99
2022-10-18T11:35:38.833Z,16.15
2022-10-18T11:40:59.339Z,16.19
2022-10-18T11:46:12.017Z,16.18
2022-10-18T11:51:34.233Z,16.14
2022-10-18T11:56:48.947Z,16.12
2022-10-18T12:02:04.971Z,16.19
2022-10-18T12:07:11.484Z,16.34
2022-10-18T12:12:23.109Z,16.45
2022-10-18T12:17:43.902Z,16.46
2022-10-18T12:23:04.830Z,16.56
2022-10-18T12:28:27.660Z,16.73
2022-10-18T12:33:45.718Z,16.98
2022-10-18T12:38:51.858Z,17.10
2022-10-18T12:43:58.147Z,17.05
2022-10-18T12:49:06.020Z,16.79
2022-10-18T12:54:13.037Z,16.53
2022-10-18T12:59:42.145Z,16.47
2022-10-18T13:04:46.788Z,16.51
2022-10-18T13:10:41.432Z,16.47
2022-10-18T13:15:48.320Z,16.52
2022-10-18T13:21:03.888Z,16.60
2022-10-18T13:26:20.976Z,16.69
2022-10-18T13:31:29.967Z,16.79
2022-10-18T13:36:34.563Z,16.88
2022-10-18T13:42:10.736Z,16.83
2022-10-18T13:47:16.311Z,16.89
2022-10-18T13:52:28.193Z,16.86
2022-10-18T13:57:55.040Z,16.92
2022-10-18T14:03:43.998Z,16.83
2022-10-18T14:08:47.447Z,16.83
2022-10-18T14:13:55.992Z,16.81
2022-10-18T14:19:08.138Z,16.80
2022-10-18T14:24:20.152Z,16.84
2022-10-18T14:29:22.892Z,16.78
2022-10-18T14:34:26.825Z,16.74
2022-10-18T14:39:32.740Z,16.74
2022-10-18T14:44:35.776Z,16.64
2022-10-18T14:49:44.792Z,16.52
2022-10-18T14:54:49.191Z,16.46
2022-10-18T14:59:58.172Z,16.33
2022-10-18T15:05:17.594Z,16.22
2022-10-18T15:10:25.062Z,16.15
2022-10-18T15:15:31.758Z,16.18
2022-10-18T15:20:39.780Z,16.20
2022-10-18T15:25:44.552Z,16.21
2022-10-18T15:30:50.608Z,16.13
2022-10-18T15:35:54.379Z,16.05
2022-10-18T15:40:58.711Z,15.99
2022-10-18T15:46:06.617Z,15.92
2022-10-18T15:51:13.861Z,15.81
2022-10-18T15:56:32.759Z,15.74
2022-10-18T16:01:39.040Z,15.64
2022-10-18T16:06:43.581Z,15.53
2022-10-18T16:11:55.781Z,15.42
2022-10-18T16:17:01.796Z,15.31
2022-10-18T16:22:06.934Z,15.16
2022-10-18T16:27:11.802Z,15.07
2022-10-18T16:32:14.596Z,14.93
2022-10-18T16:37:17.796Z,14.85
2022-10-18T16:42:24.256Z,14.74
2022-10-18T16:47:29.269Z,14.61
2022-10-18T16:52:32.315Z,14.51
2022-10-18T16:57:36.802Z,14.43
2022-10-18T17:02:39.707Z,14.35
2022-10-18T17:07:43.465Z,14.19
2022-10-18T17:12:48.093Z,14.07
2022-10-18T17:17:50.966Z,13.97
2022-10-18T17:22:53.884Z,13.90
2022-10-18T17:27:58.041Z,13.93
2022-10-18T17:33:00.794Z,13.97
2022-10-18T17:38:04.278Z,14.01
2022-10-18T17:43:08.375Z,14.04
2022-10-18T17:48:11.087Z,14.05
2022-10-18T17:53:13.938Z,14.07
2022-10-18T17:58:18.123Z,14.09
2022-10-18T18:03:21.526Z,14.13
2022-10-18T18:08:25.476Z,14.11
2022-10-18T18:13:29.852Z,14.11
2022-10-18T18:18:32.600Z,14.14
2022-10-18T18:23:35.383Z,14.19
2022-10-18T18:28:39.904Z,14.22
2022-10-18T18:33:43.492Z,14.21
2022-10-18T18:38:47.110Z,14.19
2022-10-18T18:43:53.814Z,14.17
2022-10-18T18:48:59.019Z,14.15
2022-10-18T18:54:01.855Z,14.13
2022-10-18T18:59:06.491Z,14.09
2022-10-18T19:04:10.260Z,14.06
2022-10-18T19:09:19.201Z,14.01
2022-10-18T19:14:25.561Z,13.98
2022-10-18T19:19:31.343Z,13.92
2022-10-18T19:24:34.068Z,13.90
2022-10-18T19:29:40.569Z,13.89
2022-10-18T19:34:44.305Z,13.88
2022-10-18T19:39:47.078Z,13.86
2022-10-18T19:44:51.166Z,13.81
2022-10-18T19:49:53.864Z,13.80
2022-10-18T19:54:56.602Z,13.81
2022-10-18T20:00:01.006Z,13.79
2022-10-18T20:05:04.801Z,13.74
2022-10-18T20:10:09.281Z,13.72
2022-10-18T20:15:13.638Z,13.68
2022-10-18T20:20:16.367Z,13.64
2022-10-18T20:25:19.172Z,13.61
2022-10-18T20:30:23.291Z,13.59
2022-10-18T20:35:26.296Z,13.52
2022-10-18T20:40:29.019Z,13.49
2022-10-18T20:45:33.112Z,13.48
2022-10-18T20:50:36.218Z,13.44
2022-10-18T20:55:39.061Z,13.39
2022-10-18T21:00:43.173Z,13.33
2022-10-18T21:05:45.897Z,13.32
2022-10-18T21:10:48.582Z,13.29
2022-10-18T21:15:59.705Z,13.31
2022-10-18T21:21:10.689Z,13.31
2022-10-18T21:26:15.804Z,13.27
2022-10-18T21:31:22.770Z,13.25
2022-10-18T21:36:26.158Z,13.24
2022-10-18T21:41:28.863Z,13.20
2022-10-18T21:46:32.941Z,13.21
2022-10-18T21:51:36.301Z,13.19
2022-10-18T21:56:39.091Z,13.20
2022-10-18T22:01:44.609Z,13.20
2022-10-18T22:06:47.384Z,13.16
2022-10-18T22:11:52.968Z,13.16
2022-10-18T22:16:57.064Z,13.10
2022-10-18T22:21:59.770Z,13.09
2022-10-18T22:27:02.471Z,13.09
2022-10-18T22:32:06.752Z,13.04
2022-10-18T22:37:09.502Z,12.94
2022-10-18T22:42:12.273Z,12.98
2022-10-18T22:47:16.332Z,12.71
2022-10-18T22:52:19.057Z,12.44
2022-10-18T22:57:21.778Z,12.34
2022-10-18T23:02:25.843Z,12.31
2022-10-18T23:07:28.551Z,12.26
2022-10-18T23:12:31.550Z,12.15
2022-10-18T23:17:36.249Z,12.11
2022-10-18T23:22:39.271Z,12.12
2022-10-18T23:32:51.176Z,12.11
2022-10-18T23:37:53.872Z,12.12
2022-10-18T23:42:56.568Z,12.11
2022-10-18T23:48:00.635Z,12.09
2022-10-18T23:53:03.409Z,12.08
2022-10-18T23:58:06.162Z,12.05
